createdAt,value
2023-03-07T06:50:29.891Z,33.73
2023-03-07T06:53:02.421Z,33.33
2023-03-07T06:55:29.911Z,31.67
2023-03-07T06:57:57.315Z,31.00
2023-03-07T07:00:24.736Z,32.63
2023-03-07T07:02:52.715Z,32.83
2023-03-07T07:05:20.774Z,31.37
2023-03-07T07:07:48.216Z,30.73
2023-03-07T07:10:15.500Z,29.80
2023-03-07T07:12:42.790Z,32.47
2023-03-07T07:15:10.524Z,32.67
2023-03-07T07:17:40.809Z,32.90
2023-03-07T07:20:11.346Z,34.30
2023-03-07T07:22:40.739Z,32.37
2023-03-07T07:25:09.769Z,32.33
2023-03-07T07:27:37.486Z,33.83
2023-03-07T07:30:05.663Z,34.47
2023-03-07T07:32:33.369Z,33.60
2023-03-07T07:35:02.267Z,33.63
2023-03-07T07:37:31.361Z,33.40
2023-03-07T07:39:58.690Z,33.30
2023-03-07T07:42:26.026Z,37.17
2023-03-07T07:45:16.889Z,35.70
2023-03-07T07:47:44.398Z,32.03
2023-03-07T07:50:11.926Z,31.20
2023-03-07T07:52:39.357Z,30.57
2023-03-07T07:55:06.731Z,27.70
2023-03-07T07:57:33.991Z,27.73
2023-03-07T08:00:01.344Z,27.43
2023-03-07T08:02:28.976Z,28.13
2023-03-07T08:04:56.293Z,26.23
2023-03-07T08:07:23.732Z,28.00
2023-03-07T08:09:50.990Z,27.37
2023-03-07T08:12:18.239Z,28.70
2023-03-07T09:10:35.520Z,27.30
2023-03-07T09:13:02.736Z,25.87
2023-03-07T09:15:29.621Z,26.53
2023-03-07T09:17:56.547Z,23.70
2023-03-07T09:20:23.524Z,23.60
2023-03-07T09:22:51.724Z,24.40
2023-03-07T09:25:18.976Z,24.07
2023-03-07T09:27:46.000Z,23.63
2023-03-07T09:30:14.246Z,23.83
2023-03-07T09:32:41.746Z,24.93
2023-03-07T09:35:10.395Z,24.13
2023-03-07T09:37:38.009Z,24.70
2023-03-07T09:40:07.683Z,25.63
2023-03-07T09:42:58.586Z,25.70
2023-03-07T09:45:39.297Z,26.07
2023-03-07T09:48:44.354Z,25.30
2023-03-07T09:51:16.928Z,25.83
2023-03-07T09:54:13.759Z,29.30
2023-03-07T09:56:53.886Z,25.63
2023-03-07T09:59:34.681Z,25.23
2023-03-07T10:02:06.090Z,23.47
2023-03-07T10:05:02.737Z,23.53
2023-03-07T10:07:29.925Z,24.70
2023-03-07T10:10:28.224Z,23.50
2023-03-07T10:13:35.550Z,23.03
2023-03-07T10:16:15.500Z,24.07
2023-03-07T10:18:54.524Z,23.83
2023-03-07T10:21:40.513Z,24.17
2023-03-07T10:24:13.125Z,24.53
2023-03-07T10:27:06.604Z,24.57
2023-03-07T10:29:49.748Z,25.93
2023-03-07T10:32:22.216Z,25.87
2023-03-07T10:34:57.966Z,26.47
2023-03-07T10:37:31.230Z,26.03
2023-03-07T10:39:59.448Z,25.00
2023-03-07T10:42:32.237Z,26.50
2023-03-07T10:44:59.172Z,25.90
2023-03-07T10:47:28.553Z,27.03
2023-03-07T10:50:21.922Z,26.70
2023-03-07T10:52:58.171Z,26.43
2023-03-07T10:55:41.490Z,27.50
2023-03-07T10:58:20.489Z,27.40
2023-03-07T11:01:07.217Z,27.87
2023-03-07T11:03:58.637Z,28.07
2023-03-07T11:06:25.649Z,28.37
2023-03-07T11:08:52.668Z,28.73
2023-03-07T11:11:25.114Z,28.23
2023-03-07T11:14:06.300Z,28.57
2023-03-07T11:16:33.403Z,28.67
2023-03-07T11:19:00.414Z,29.57
2023-03-07T11:21:36.266Z,29.37
2023-03-07T11:24:30.047Z,30.63
2023-03-07T11:26:58.656Z,28.90
2023-03-07T11:29:28.253Z,29.17
2023-03-07T11:32:18.663Z,28.90
2023-03-07T11:34:59.403Z,28.73
2023-03-07T11:37:39.545Z,29.93
2023-03-07T11:40:24.263Z,28.87
2023-03-07T11:43:42.664Z,29.37
2023-03-07T11:46:54.143Z,29.60
2023-03-07T11:49:35.958Z,30.60
2023-03-07T11:52:12.212Z,30.30
2023-03-07T11:54:57.993Z,29.33
2023-03-07T11:58:01.439Z,28.73
2023-03-07T12:00:43.487Z,28.80
2023-03-07T12:03:13.286Z,29.20
2023-03-07T12:05:45.987Z,29.03
2023-03-07T12:08:37.030Z,30.93
2023-03-07T12:23:20.885Z,23.50
2023-03-07T12:25:51.080Z,24.60
2023-03-07T12:28:36.790Z,23.47
2023-03-07T12:31:22.171Z,24.10
2023-03-07T12:34:09.902Z,23.87
2023-03-07T12:36:47.514Z,24.43
2023-03-07T12:39:24.726Z,24.63
2023-03-07T12:42:17.755Z,24.00
2023-03-07T12:44:56.755Z,22.87
2023-03-07T12:47:50.840Z,25.00
2023-03-07T12:50:39.159Z,24.10
2023-03-07T12:53:22.283Z,24.67
2023-03-07T12:55:57.068Z,23.53
2023-03-07T12:59:05.663Z,25.50
2023-03-07T13:01:40.286Z,23.47
2023-03-07T13:04:31.541Z,23.20
2023-03-07T13:07:11.945Z,24.20
2023-03-07T13:09:41.988Z,23.23
2023-03-07T13:12:22.582Z,22.80
2023-03-07T13:14:55.083Z,21.10
2023-03-07T13:17:31.177Z,21.20
2023-03-07T13:20:02.325Z,21.40
2023-03-07T13:22:29.291Z,21.27
2023-03-07T13:24:57.234Z,21.67
2023-03-07T13:27:44.358Z,22.13
2023-03-07T13:30:18.349Z,22.10
2023-03-07T13:32:51.072Z,21.17
2023-03-07T13:35:38.988Z,21.70
2023-03-07T13:38:24.323Z,21.80
2023-03-07T13:40:56.335Z,21.13
2023-03-07T13:43:24.196Z,22.23
2023-03-07T13:45:58.358Z,21.37
2023-03-07T13:48:26.128Z,21.70
2023-03-07T13:50:54.142Z,21.80
2023-03-07T13:53:35.974Z,21.40
2023-03-07T13:56:25.089Z,38.33
2023-03-07T13:59:02.417Z,25.90
2023-03-07T14:02:00.907Z,73.33
2023-03-07T14:04:40.766Z,34.70
2023-03-07T14:07:24.777Z,23.30
2023-03-07T14:10:19.569Z,20.53
2023-03-07T14:13:32.213Z,19.40
2023-03-07T14:16:16.836Z,18.60
2023-03-07T14:18:55.077Z,19.07
2023-03-07T14:21:27.568Z,19.17
2023-03-07T14:24:31.431Z,19.33
2023-03-07T14:27:02.995Z,18.83
2023-03-07T14:29:30.967Z,18.33
2023-03-07T14:32:00.897Z,18.33
2023-03-07T14:34:33.279Z,18.20
2023-03-07T14:37:08.903Z,18.73
2023-03-07T14:39:55.089Z,17.30
2023-03-07T14:42:22.451Z,17.43
2023-03-07T14:45:01.604Z,16.20
2023-03-07T14:47:46.694Z,16.77
2023-03-07T14:50:19.057Z,17.60
2023-03-07T14:52:47.108Z,17.03
2023-03-07T14:55:24.573Z,16.20
2023-03-07T14:57:54.770Z,17.20
2023-03-07T15:00:25.366Z,16.43
2023-03-07T15:02:57.845Z,16.40
2023-03-07T15:05:30.998Z,16.00
2023-03-07T15:07:58.666Z,15.87
2023-03-07T15:10:46.035Z,15.63
2023-03-07T15:13:26.555Z,16.60
2023-03-07T15:15:58.510Z,16.23
2023-03-07T15:18:29.671Z,15.67
2023-03-07T15:20:58.184Z,16.23
2023-03-07T15:23:30.119Z,15.73
2023-03-07T15:26:10.874Z,15.13
2023-03-07T15:28:40.500Z,15.00
2023-03-07T15:31:11.052Z,14.73
2023-03-07T15:33:38.394Z,18.13
2023-03-07T15:36:14.063Z,15.80
2023-03-07T15:38:43.191Z,13.97
2023-03-07T15:41:36.257Z,14.93
2023-03-07T15:44:17.873Z,14.73
2023-03-07T15:46:46.251Z,15.23
2023-03-07T15:49:50.414Z,14.80
2023-03-07T15:52:33.507Z,14.77
2023-03-07T15:55:05.407Z,15.07
2023-03-07T16:25:22.881Z,15.53
2023-03-07T16:27:54.670Z,15.80
2023-03-07T16:30:23.723Z,15.77
2023-03-07T16:32:51.173Z,16.13
2023-03-07T16:35:18.659Z,16.13
2023-03-07T16:37:48.283Z,18.30
2023-03-07T17:01:51.309Z,16.17
2023-03-07T17:04:18.532Z,16.80
2023-03-07T17:06:48.762Z,16.87
2023-03-07T17:09:17.782Z,17.17
2023-03-07T17:11:48.450Z,16.13
2023-03-07T17:14:16.725Z,17.77
2023-03-07T17:16:46.994Z,15.73
2023-03-07T17:19:25.929Z,17.07
2023-03-07T17:21:53.351Z,16.10
2023-03-07T17:24:20.767Z,16.33
2023-03-07T17:26:48.962Z,16.93
2023-03-07T17:29:24.750Z,16.73
2023-03-07T17:31:52.049Z,16.83
2023-03-07T17:34:26.220Z,17.20
2023-03-07T17:36:54.207Z,17.30
2023-03-07T17:39:22.678Z,16.23
2023-03-07T17:41:50.115Z,17.20
2023-03-07T17:44:18.158Z,17.33
2023-03-07T17:50:08.388Z,16.83
2023-03-07T17:52:43.191Z,16.83
2023-03-07T17:55:10.755Z,17.03
2023-03-07T17:57:38.188Z,16.10
2023-03-07T18:00:14.318Z,17.60
2023-03-07T18:02:44.166Z,18.40
2023-03-07T18:05:13.144Z,16.50
2023-03-07T18:07:43.416Z,17.60
2023-03-07T18:10:11.636Z,18.47
2023-03-07T18:12:39.451Z,17.73
2023-03-07T18:15:14.553Z,17.47
2023-03-07T18:17:48.308Z,17.47
2023-03-07T18:20:17.781Z,17.60
2023-03-07T18:22:45.085Z,18.20
2023-03-07T18:25:14.192Z,17.40
2023-03-07T18:27:41.484Z,17.90
2023-03-07T18:30:09.336Z,17.73
2023-03-07T18:32:36.672Z,17.60
2023-03-07T18:35:04.238Z,17.37
2023-03-07T18:37:31.565Z,16.63
2023-03-07T18:39:58.845Z,17.10
2023-03-07T18:42:27.391Z,16.17
2023-03-07T18:44:54.800Z,15.87
2023-03-07T18:47:22.106Z,16.33
2023-03-07T18:49:51.275Z,15.87
2023-03-07T18:52:18.867Z,15.50
2023-03-07T18:54:46.147Z,15.83
2023-03-07T18:57:13.376Z,16.03
2023-03-07T18:59:40.730Z,15.77
2023-03-07T19:02:08.258Z,15.57
2023-03-07T19:04:35.679Z,15.90
2023-03-07T19:07:04.017Z,15.37
2023-03-07T19:09:31.697Z,14.07
2023-03-07T19:11:59.028Z,15.40
2023-03-07T19:14:26.518Z,14.73
2023-03-07T19:16:55.172Z,15.17
2023-03-07T19:19:22.435Z,14.60
2023-03-07T19:21:49.693Z,14.10
2023-03-07T19:24:17.038Z,13.87
2023-03-07T19:26:44.524Z,13.57
2023-03-07T19:29:13.286Z,14.17
2023-03-07T19:31:43.981Z,13.97
2023-03-07T19:34:11.591Z,14.20
2023-03-07T19:36:41.420Z,14.60
2023-03-07T19:39:09.708Z,13.97
2023-03-07T19:41:40.894Z,13.93
2023-03-07T19:44:12.155Z,13.63
2023-03-07T19:46:53.226Z,13.00
2023-03-07T19:49:23.017Z,13.77
2023-03-07T19:51:50.263Z,14.20
2023-03-07T19:54:17.674Z,13.10
2023-03-07T19:56:45.731Z,14.17
2023-03-07T19:59:13.403Z,14.83
2023-03-07T20:01:40.864Z,13.73
2023-03-07T20:04:08.230Z,12.90
2023-03-07T20:06:35.650Z,13.27
2023-03-07T20:09:02.981Z,13.40
2023-03-07T20:11:31.600Z,12.93
2023-03-07T20:14:01.453Z,13.40
2023-03-07T20:16:29.182Z,13.70
2023-03-07T20:18:58.856Z,12.70
2023-03-07T20:21:28.256Z,13.03
2023-03-07T20:23:59.567Z,12.80
2023-03-07T20:26:47.407Z,12.50
2023-03-07T20:29:14.882Z,12.43
2023-03-07T20:31:42.206Z,13.63
2023-03-07T20:34:09.767Z,11.67
2023-03-07T20:36:40.402Z,13.57
2023-03-07T20:39:08.872Z,11.77
2023-03-07T20:41:36.918Z,10.10
2023-03-07T20:44:07.564Z,9.97
2023-03-07T20:46:39.108Z,11.87
2023-03-07T20:49:06.865Z,11.37
2023-03-07T20:51:35.660Z,10.53
2023-03-07T20:54:04.171Z,11.60
2023-03-07T20:56:32.762Z,11.40
2023-03-07T20:59:00.372Z,10.83
2023-03-07T21:01:30.036Z,11.00
2023-03-07T21:03:59.858Z,11.50
2023-03-07T21:06:27.205Z,10.57
2023-03-07T21:08:54.499Z,10.83
2023-03-07T21:11:22.107Z,10.47
2023-03-07T21:13:49.772Z,11.23
2023-03-07T21:16:22.003Z,11.10
2023-03-07T21:18:49.648Z,10.60
2023-03-07T21:21:21.593Z,10.33
2023-03-07T21:23:49.387Z,10.93
2023-03-07T21:26:18.317Z,10.80
2023-03-07T21:28:45.904Z,11.57
2023-03-07T21:31:13.255Z,10.93
2023-03-07T21:33:44.286Z,11.17
2023-03-07T21:36:14.266Z,11.20
2023-03-07T21:38:42.191Z,10.57
2023-03-07T21:41:10.140Z,11.17
2023-03-07T21:43:37.547Z,10.53
2023-03-07T21:46:05.923Z,10.37
2023-03-07T21:48:33.553Z,10.93
2023-03-07T21:51:01.972Z,10.87
2023-03-07T21:53:29.569Z,11.27
2023-03-07T21:55:58.407Z,11.17
2023-03-07T21:58:25.904Z,10.60
2023-03-07T22:00:55.228Z,10.57
2023-03-07T22:03:22.809Z,11.40
2023-03-07T22:05:50.100Z,10.80
2023-03-07T22:08:17.639Z,9.97
2023-03-07T22:10:44.917Z,11.30
2023-03-07T22:13:11.889Z,11.00
2023-03-07T22:15:40.308Z,11.00
2023-03-07T22:18:07.708Z,11.20
2023-03-07T22:20:34.983Z,11.40
2023-03-07T22:23:02.233Z,11.40
2023-03-07T22:25:29.532Z,11.10
2023-03-07T22:27:56.785Z,10.10
2023-03-07T22:30:23.889Z,9.63
2023-03-07T22:32:50.746Z,8.80
2023-03-07T22:35:17.752Z,7.30
2023-03-07T22:37:44.667Z,6.00
2023-03-07T22:40:12.188Z,3.80
2023-03-07T22:42:39.453Z,3.00
2023-03-07T22:45:07.070Z,2.40
2023-03-07T22:47:35.034Z,2.73
2023-03-07T22:50:02.351Z,3.40
2023-03-07T22:52:29.605Z,3.50
2023-03-07T22:54:57.021Z,3.87
2023-03-07T22:57:24.245Z,4.00
2023-03-07T22:59:51.517Z,3.37
2023-03-07T23:02:18.764Z,3.07
2023-03-07T23:04:46.143Z,3.60
2023-03-07T23:07:13.472Z,3.10
2023-03-07T23:09:40.852Z,2.80
2023-03-07T23:12:08.268Z,3.00
2023-03-07T23:14:37.085Z,3.20
2023-03-07T23:17:04.612Z,2.97
2023-03-07T23:19:31.951Z,3.03
2023-03-07T23:21:59.201Z,3.30
2023-03-07T23:24:26.040Z,3.60
2023-03-07T23:26:53.299Z,3.10
